sensor_id;sensor_type;location;lat;lon;timestamp;P1;durP1;ratioP1;P2;durP2;ratioP2
65187;SDS011;51775;51.148;6.950;2023-04-15T00:02:22;2.45;;;1.10;;
65187;SDS011;51775;51.148;6.950;2023-04-15T00:04:48;2.28;;;1.08;;
65187;SDS011;51775;51.148;6.950;2023-04-15T00:07:13;1.50;;;1.00;;
65187;SDS011;51775;51.148;6.950;2023-04-15T00:09:40;1.85;;;1.00;;
65187;SDS011;51775;51.148;6.950;2023-04-15T00:12:08;2.17;;;1.30;;
65187;SDS011;51775;51.148;6.950;2023-04-15T00:14:33;1.88;;;1.02;;
65187;SDS011;51775;51.148;6.950;2023-04-15T00:16:59;1.42;;;0.93;;
65187;SDS011;51775;51.148;6.950;2023-04-15T00:19:24;1.98;;;1.02;;
65187;SDS011;51775;51.148;6.950;2023-04-15T00:21:49;2.47;;;1.00;;
65187;SDS011;51775;51.148;6.950;2023-04-15T00:24:15;2.13;;;1.10;;
65187;SDS011;51775;51.148;6.950;2023-04-15T00:26:40;1.55;;;0.90;;
65187;SDS011;51775;51.148;6.950;2023-04-15T00:29:05;1.98;;;1.00;;
65187;SDS011;51775;51.148;6.950;2023-04-15T00:31:30;1.85;;;1.00;;
65187;SDS011;51775;51.148;6.950;2023-04-15T00:33:56;1.65;;;0.90;;
65187;SDS011;51775;51.148;6.950;2023-04-15T00:36:21;2.42;;;1.00;;
65187;SDS011;51775;51.148;6.950;2023-04-15T00:38:47;1.70;;;1.00;;
65187;SDS011;51775;51.148;6.950;2023-04-15T00:41:12;2.53;;;1.00;;
65187;SDS011;51775;51.148;6.950;2023-04-15T00:43:37;1.88;;;0.90;;
65187;SDS011;51775;51.148;6.950;2023-04-15T00:46:03;1.42;;;0.90;;
65187;SDS011;51775;51.148;6.950;2023-04-15T00:48:29;2.05;;;1.08;;
65187;SDS011;51775;51.148;6.950;2023-04-15T00:50:56;1.90;;;1.08;;
65187;SDS011;51775;51.148;6.950;2023-04-15T00:53:21;1.77;;;0.90;;
65187;SDS011;51775;51.148;6.950;2023-04-15T00:55:46;1.70;;;0.90;;
65187;SDS011;51775;51.148;6.950;2023-04-15T00:58:11;1.52;;;1.00;;
65187;SDS011;51775;51.148;6.950;2023-04-15T01:00:37;1.60;;;0.90;;
65187;SDS011;51775;51.148;6.950;2023-04-15T01:03:02;1.40;;;0.90;;
65187;SDS011;51775;51.148;6.950;2023-04-15T01:05:27;1.83;;;1.00;;
65187;SDS011;51775;51.148;6.950;2023-04-15T01:07:54;1.92;;;1.00;;
65187;SDS011;51775;51.148;6.950;2023-04-15T01:10:19;3.33;;;0.98;;
65187;SDS011;51775;51.148;6.950;2023-04-15T01:12:44;1.77;;;1.00;;
65187;SDS011;51775;51.148;6.950;2023-04-15T01:15:10;1.45;;;0.93;;
65187;SDS011;51775;51.148;6.950;2023-04-15T01:17:35;2.10;;;0.90;;
65187;SDS011;51775;51.148;6.950;2023-04-15T01:22:46;1.70;;;1.00;;
65187;SDS011;51775;51.148;6.950;2023-04-15T01:25:18;1.40;;;0.90;;
65187;SDS011;51775;51.148;6.950;2023-04-15T01:27:46;1.23;;;0.77;;
65187;SDS011;51775;51.148;6.950;2023-04-15T01:30:12;1.48;;;0.95;;
65187;SDS011;51775;51.148;6.950;2023-04-15T01:32:37;1.35;;;0.80;;
65187;SDS011;51775;51.148;6.950;2023-04-15T01:35:02;1.30;;;0.85;;
65187;SDS011;51775;51.148;6.950;2023-04-15T01:37:28;1.38;;;0.80;;
65187;SDS011;51775;51.148;6.950;2023-04-15T01:39:53;1.45;;;0.90;;
65187;SDS011;51775;51.148;6.950;2023-04-15T01:42:20;1.75;;;1.00;;
65187;SDS011;51775;51.148;6.950;2023-04-15T01:44:45;1.98;;;1.00;;
65187;SDS011;51775;51.148;6.950;2023-04-15T01:47:10;1.08;;;0.75;;
65187;SDS011;51775;51.148;6.950;2023-04-15T01:49:36;1.60;;;0.90;;
65187;SDS011;51775;51.148;6.950;2023-04-15T01:52:01;1.30;;;0.80;;
65187;SDS011;51775;51.148;6.950;2023-04-15T01:54:26;1.90;;;0.95;;
65187;SDS011;51775;51.148;6.950;2023-04-15T01:56:52;1.67;;;1.00;;
65187;SDS011;51775;51.148;6.950;2023-04-15T01:59:17;1.88;;;0.93;;
65187;SDS011;51775;51.148;6.950;2023-04-15T02:01:42;1.58;;;0.93;;
65187;SDS011;51775;51.148;6.950;2023-04-15T02:04:07;1.30;;;1.00;;
65187;SDS011;51775;51.148;6.950;2023-04-15T02:06:33;1.50;;;0.90;;
65187;SDS011;51775;51.148;6.950;2023-04-15T02:08:58;2.17;;;1.00;;
65187;SDS011;51775;51.148;6.950;2023-04-15T02:11:23;1.45;;;1.00;;
65187;SDS011;51775;51.148;6.950;2023-04-15T02:13:49;1.45;;;0.90;;
65187;SDS011;51775;51.148;6.950;2023-04-15T02:16:15;1.92;;;0.90;;
65187;SDS011;51775;51.148;6.950;2023-04-15T02:18:41;1.45;;;0.90;;
65187;SDS011;51775;51.148;6.950;2023-04-15T02:21:07;1.60;;;1.00;;
65187;SDS011;51775;51.148;6.950;2023-04-15T02:23:33;1.40;;;0.95;;
65187;SDS011;51775;51.148;6.950;2023-04-15T02:25:58;1.67;;;0.90;;
65187;SDS011;51775;51.148;6.950;2023-04-15T02:28:23;1.27;;;0.98;;
65187;SDS011;51775;51.148;6.950;2023-04-15T02:30:48;1.80;;;1.10;;
65187;SDS011;51775;51.148;6.950;2023-04-15T02:33:14;2.22;;;1.10;;
65187;SDS011;51775;51.148;6.950;2023-04-15T02:35:39;1.65;;;1.00;;
65187;SDS011;51775;51.148;6.950;2023-04-15T02:38:04;1.52;;;0.90;;
65187;SDS011;51775;51.148;6.950;2023-04-15T02:40:29;2.38;;;1.10;;
65187;SDS011;51775;51.148;6.950;2023-04-15T02:42:55;2.30;;;1.00;;
65187;SDS011;51775;51.148;6.950;2023-04-15T02:45:20;1.73;;;1.08;;
65187;SDS011;51775;51.148;6.950;2023-04-15T02:47:45;1.77;;;1.10;;
65187;SDS011;51775;51.148;6.950;2023-04-15T02:50:11;1.73;;;0.90;;
65187;SDS011;51775;51.148;6.950;2023-04-15T02:52:39;2.72;;;1.20;;
65187;SDS011;51775;51.148;6.950;2023-04-15T02:55:05;1.98;;;1.17;;
65187;SDS011;51775;51.148;6.950;2023-04-15T02:57:30;1.60;;;1.00;;
65187;SDS011;51775;51.148;6.950;2023-04-15T02:59:55;1.50;;;0.90;;
65187;SDS011;51775;51.148;6.950;2023-04-15T03:02:21;1.92;;;0.98;;
65187;SDS011;51775;51.148;6.950;2023-04-15T03:04:46;2.05;;;1.10;;
65187;SDS011;51775;51.148;6.950;2023-04-15T03:07:11;2.63;;;1.23;;
65187;SDS011;51775;51.148;6.950;2023-04-15T03:09:36;1.95;;;1.13;;
65187;SDS011;51775;51.148;6.950;2023-04-15T03:12:02;1.80;;;1.05;;
65187;SDS011;51775;51.148;6.950;2023-04-15T03:14:27;1.98;;;1.10;;
65187;SDS011;51775;51.148;6.950;2023-04-15T03:16:52;2.03;;;1.10;;
65187;SDS011;51775;51.148;6.950;2023-04-15T03:19:18;2.08;;;1.20;;
65187;SDS011;51775;51.148;6.950;2023-04-15T03:21:43;1.70;;;1.10;;
65187;SDS011;51775;51.148;6.950;2023-04-15T03:24:08;2.30;;;1.30;;
65187;SDS011;51775;51.148;6.950;2023-04-15T03:26:34;1.95;;;1.17;;
65187;SDS011;51775;51.148;6.950;2023-04-15T03:28:59;1.65;;;1.10;;
65187;SDS011;51775;51.148;6.950;2023-04-15T03:31:24;1.83;;;1.10;;
65187;SDS011;51775;51.148;6.950;2023-04-15T03:33:49;1.83;;;1.20;;
65187;SDS011;51775;51.148;6.950;2023-04-15T03:36:15;2.00;;;1.20;;
65187;SDS011;51775;51.148;6.950;2023-04-15T03:38:40;1.67;;;1.13;;
65187;SDS011;51775;51.148;6.950;2023-04-15T03:41:06;2.13;;;1.20;;
65187;SDS011;51775;51.148;6.950;2023-04-15T03:43:31;1.75;;;1.10;;
65187;SDS011;51775;51.148;6.950;2023-04-15T03:45:56;1.80;;;1.20;;
65187;SDS011;51775;51.148;6.950;2023-04-15T03:48:21;2.00;;;1.10;;
65187;SDS011;51775;51.148;6.950;2023-04-15T03:50:47;1.63;;;1.00;;
65187;SDS011;51775;51.148;6.950;2023-04-15T03:53:12;1.80;;;1.10;;
65187;SDS011;51775;51.148;6.950;2023-04-15T03:55:39;1.52;;;1.02;;
65187;SDS011;51775;51.148;6.950;2023-04-15T03:58:04;1.75;;;1.10;;
65187;SDS011;51775;51.148;6.950;2023-04-15T04:00:30;1.85;;;1.10;;
65187;SDS011;51775;51.148;6.950;2023-04-15T04:02:55;1.80;;;1.10;;
65187;SDS011;51775;51.148;6.950;2023-04-15T04:05:20;2.00;;;1.08;;
65187;SDS011;51775;51.148;6.950;2023-04-15T04:07:45;1.55;;;1.00;;
65187;SDS011;51775;51.148;6.950;2023-04-15T04:10:13;2.10;;;1.13;;
65187;SDS011;51775;51.148;6.950;2023-04-15T04:12:38;2.45;;;1.05;;
65187;SDS011;51775;51.148;6.950;2023-04-15T04:15:03;1.55;;;1.00;;
65187;SDS011;51775;51.148;6.950;2023-04-15T04:17:29;1.60;;;1.00;;
65187;SDS011;51775;51.148;6.950;2023-04-15T04:19:54;1.60;;;1.10;;
65187;SDS011;51775;51.148;6.950;2023-04-15T04:22:23;1.95;;;1.10;;
65187;SDS011;51775;51.148;6.950;2023-04-15T04:24:48;1.60;;;1.00;;
65187;SDS011;51775;51.148;6.950;2023-04-15T04:27:13;1.65;;;1.00;;
65187;SDS011;51775;51.148;6.950;2023-04-15T04:29:39;1.58;;;1.08;;
65187;SDS011;51775;51.148;6.950;2023-04-15T04:32:04;2.25;;;1.13;;
65187;SDS011;51775;51.148;6.950;2023-04-15T04:34:29;1.20;;;0.90;;
65187;SDS011;51775;51.148;6.950;2023-04-15T04:36:55;2.05;;;1.30;;
65187;SDS011;51775;51.148;6.950;2023-04-15T04:39:20;2.20;;;1.00;;
65187;SDS011;51775;51.148;6.950;2023-04-15T04:41:45;1.70;;;1.10;;
65187;SDS011;51775;51.148;6.950;2023-04-15T04:44:10;1.95;;;1.20;;
65187;SDS011;51775;51.148;6.950;2023-04-15T04:46:36;1.70;;;1.02;;
65187;SDS011;51775;51.148;6.950;2023-04-15T04:49:01;1.63;;;1.10;;
65187;SDS011;51775;51.148;6.950;2023-04-15T04:51:26;1.73;;;1.10;;
65187;SDS011;51775;51.148;6.950;2023-04-15T04:53:51;1.67;;;1.13;;
65187;SDS011;51775;51.148;6.950;2023-04-15T04:56:18;1.88;;;1.10;;
65187;SDS011;51775;51.148;6.950;2023-04-15T04:58:43;1.73;;;1.00;;
65187;SDS011;51775;51.148;6.950;2023-04-15T05:01:08;1.55;;;1.00;;
65187;SDS011;51775;51.148;6.950;2023-04-15T05:03:33;1.73;;;1.10;;
65187;SDS011;51775;51.148;6.950;2023-04-15T05:05:59;1.88;;;1.00;;
65187;SDS011;51775;51.148;6.950;2023-04-15T05:08:24;1.73;;;0.90;;
65187;SDS011;51775;51.148;6.950;2023-04-15T05:10:49;1.75;;;1.15;;
65187;SDS011;51775;51.148;6.950;2023-04-15T05:13:14;1.92;;;1.10;;
65187;SDS011;51775;51.148;6.950;2023-04-15T05:15:40;1.42;;;1.00;;
65187;SDS011;51775;51.148;6.950;2023-04-15T05:18:05;1.88;;;1.00;;
65187;SDS011;51775;51.148;6.950;2023-04-15T05:20:30;2.38;;;1.40;;
65187;SDS011;51775;51.148;6.950;2023-04-15T05:22:56;2.03;;;1.20;;
65187;SDS011;51775;51.148;6.950;2023-04-15T05:25:21;2.53;;;1.30;;
65187;SDS011;51775;51.148;6.950;2023-04-15T05:27:46;2.42;;;1.50;;
65187;SDS011;51775;51.148;6.950;2023-04-15T05:30:12;2.40;;;1.40;;
65187;SDS011;51775;51.148;6.950;2023-04-15T05:32:37;2.20;;;1.40;;
65187;SDS011;51775;51.148;6.950;2023-04-15T05:35:02;2.55;;;1.30;;
65187;SDS011;51775;51.148;6.950;2023-04-15T05:37:27;2.42;;;1.42;;
65187;SDS011;51775;51.148;6.950;2023-04-15T05:42:22;1.80;;;1.10;;
65187;SDS011;51775;51.148;6.950;2023-04-15T05:44:47;3.25;;;1.40;;
65187;SDS011;51775;51.148;6.950;2023-04-15T05:47:24;1.77;;;1.10;;
65187;SDS011;51775;51.148;6.950;2023-04-15T05:49:49;2.20;;;1.27;;
65187;SDS011;51775;51.148;6.950;2023-04-15T05:52:14;1.73;;;1.10;;
65187;SDS011;51775;51.148;6.950;2023-04-15T05:54:39;1.63;;;1.10;;
65187;SDS011;51775;51.148;6.950;2023-04-15T05:57:05;2.10;;;1.20;;
65187;SDS011;51775;51.148;6.950;2023-04-15T05:59:30;1.77;;;1.20;;
65187;SDS011;51775;51.148;6.950;2023-04-15T06:01:55;1.70;;;1.05;;
65187;SDS011;51775;51.148;6.950;2023-04-15T06:04:21;1.98;;;1.30;;
65187;SDS011;51775;51.148;6.950;2023-04-15T06:06:46;2.92;;;1.30;;
65187;SDS011;51775;51.148;6.950;2023-04-15T06:09:11;1.38;;;1.00;;
65187;SDS011;51775;51.148;6.950;2023-04-15T06:11:36;2.08;;;1.17;;
65187;SDS011;51775;51.148;6.950;2023-04-15T06:14:02;1.48;;;1.00;;
65187;SDS011;51775;51.148;6.950;2023-04-15T06:16:27;2.03;;;1.25;;
65187;SDS011;51775;51.148;6.950;2023-04-15T06:18:52;1.95;;;1.13;;
65187;SDS011;51775;51.148;6.950;2023-04-15T06:21:17;2.33;;;1.17;;
65187;SDS011;51775;51.148;6.950;2023-04-15T06:23:44;2.08;;;1.10;;
65187;SDS011;51775;51.148;6.950;2023-04-15T06:26:09;1.77;;;1.10;;
65187;SDS011;51775;51.148;6.950;2023-04-15T06:28:35;2.35;;;1.38;;
65187;SDS011;51775;51.148;6.950;2023-04-15T06:31:00;2.10;;;1.40;;
65187;SDS011;51775;51.148;6.950;2023-04-15T06:33:25;2.00;;;1.35;;
65187;SDS011;51775;51.148;6.950;2023-04-15T06:35:51;2.00;;;1.20;;
65187;SDS011;51775;51.148;6.950;2023-04-15T06:38:17;2.70;;;1.40;;
65187;SDS011;51775;51.148;6.950;2023-04-15T06:40:42;2.70;;;1.60;;
65187;SDS011;51775;51.148;6.950;2023-04-15T06:43:08;2.08;;;1.38;;
65187;SDS011;51775;51.148;6.950;2023-04-15T06:45:33;3.03;;;1.60;;
65187;SDS011;51775;51.148;6.950;2023-04-15T06:47:59;1.77;;;1.17;;
65187;SDS011;51775;51.148;6.950;2023-04-15T06:50:24;1.85;;;1.27;;
65187;SDS011;51775;51.148;6.950;2023-04-15T06:52:49;2.00;;;1.20;;
65187;SDS011;51775;51.148;6.950;2023-04-15T06:55:14;2.20;;;1.20;;
65187;SDS011;51775;51.148;6.950;2023-04-15T06:57:40;1.95;;;1.10;;
65187;SDS011;51775;51.148;6.950;2023-04-15T07:00:05;1.80;;;1.10;;
65187;SDS011;51775;51.148;6.950;2023-04-15T07:02:32;2.38;;;1.15;;
65187;SDS011;51775;51.148;6.950;2023-04-15T07:04:58;6.07;;;1.17;;
65187;SDS011;51775;51.148;6.950;2023-04-15T07:07:23;3.47;;;1.20;;
65187;SDS011;51775;51.148;6.950;2023-04-15T07:09:48;1.60;;;1.00;;
65187;SDS011;51775;51.148;6.950;2023-04-15T07:12:13;1.92;;;1.02;;
65187;SDS011;51775;51.148;6.950;2023-04-15T07:14:39;1.90;;;1.20;;
65187;SDS011;51775;51.148;6.950;2023-04-15T07:17:04;1.63;;;1.00;;
65187;SDS011;51775;51.148;6.950;2023-04-15T07:19:29;1.73;;;1.13;;
65187;SDS011;51775;51.148;6.950;2023-04-15T07:21:54;2.00;;;1.08;;
65187;SDS011;51775;51.148;6.950;2023-04-15T07:24:20;1.80;;;1.10;;
65187;SDS011;51775;51.148;6.950;2023-04-15T07:26:45;2.40;;;1.30;;
65187;SDS011;51775;51.148;6.950;2023-04-15T07:29:10;1.77;;;1.05;;
65187;SDS011;51775;51.148;6.950;2023-04-15T07:31:36;1.92;;;1.08;;
65187;SDS011;51775;51.148;6.950;2023-04-15T07:34:01;3.92;;;1.20;;
65187;SDS011;51775;51.148;6.950;2023-04-15T07:36:27;1.77;;;0.90;;
65187;SDS011;51775;51.148;6.950;2023-04-15T07:38:53;2.30;;;1.02;;
65187;SDS011;51775;51.148;6.950;2023-04-15T07:41:18;2.30;;;1.30;;
65187;SDS011;51775;51.148;6.950;2023-04-15T07:43:44;1.75;;;0.93;;
65187;SDS011;51775;51.148;6.950;2023-04-15T07:46:09;1.60;;;0.88;;
65187;SDS011;51775;51.148;6.950;2023-04-15T07:48:34;2.20;;;1.05;;
65187;SDS011;51775;51.148;6.950;2023-04-15T07:50:59;1.70;;;1.10;;
65187;SDS011;51775;51.148;6.950;2023-04-15T07:53:25;2.33;;;1.15;;
65187;SDS011;51775;51.148;6.950;2023-04-15T07:55:51;1.60;;;1.00;;
65187;SDS011;51775;51.148;6.950;2023-04-15T07:58:17;1.60;;;0.88;;
65187;SDS011;51775;51.148;6.950;2023-04-15T08:00:42;1.38;;;0.90;;
65187;SDS011;51775;51.148;6.950;2023-04-15T08:03:07;1.52;;;0.90;;
65187;SDS011;51775;51.148;6.950;2023-04-15T08:05:32;1.58;;;0.90;;
65187;SDS011;51775;51.148;6.950;2023-04-15T08:07:58;1.40;;;0.80;;
65187;SDS011;51775;51.148;6.950;2023-04-15T08:10:23;1.65;;;0.90;;
65187;SDS011;51775;51.148;6.950;2023-04-15T08:12:48;2.47;;;0.80;;
65187;SDS011;51775;51.148;6.950;2023-04-15T08:15:13;1.52;;;0.70;;
65187;SDS011;51775;51.148;6.950;2023-04-15T08:17:39;1.38;;;0.80;;
65187;SDS011;51775;51.148;6.950;2023-04-15T08:20:04;2.25;;;0.65;;
65187;SDS011;51775;51.148;6.950;2023-04-15T08:22:30;1.60;;;0.90;;
65187;SDS011;51775;51.148;6.950;2023-04-15T08:24:55;0.75;;;0.57;;
65187;SDS011;51775;51.148;6.950;2023-04-15T08:27:20;1.13;;;0.70;;
65187;SDS011;51775;51.148;6.950;2023-04-15T08:29:51;0.82;;;0.70;;
65187;SDS011;51775;51.148;6.950;2023-04-15T08:32:16;1.50;;;0.70;;
65187;SDS011;51775;51.148;6.950;2023-04-15T08:34:41;1.15;;;0.70;;
65187;SDS011;51775;51.148;6.950;2023-04-15T08:37:08;3.40;;;0.85;;
65187;SDS011;51775;51.148;6.950;2023-04-15T08:39:33;1.63;;;0.80;;
65187;SDS011;51775;51.148;6.950;2023-04-15T08:42:02;1.73;;;0.80;;
65187;SDS011;51775;51.148;6.950;2023-04-15T08:44:28;1.15;;;0.82;;
65187;SDS011;51775;51.148;6.950;2023-04-15T08:46:55;1.95;;;0.80;;
65187;SDS011;51775;51.148;6.950;2023-04-15T08:49:20;1.23;;;0.90;;
65187;SDS011;51775;51.148;6.950;2023-04-15T08:51:48;1.85;;;1.10;;
65187;SDS011;51775;51.148;6.950;2023-04-15T08:54:13;1.30;;;0.80;;
65187;SDS011;51775;51.148;6.950;2023-04-15T08:56:39;2.83;;;1.08;;
65187;SDS011;51775;51.148;6.950;2023-04-15T08:59:04;1.38;;;0.77;;
65187;SDS011;51775;51.148;6.950;2023-04-15T09:01:30;2.13;;;0.98;;
65187;SDS011;51775;51.148;6.950;2023-04-15T09:03:56;1.17;;;0.82;;
65187;SDS011;51775;51.148;6.950;2023-04-15T09:06:23;0.98;;;0.70;;
65187;SDS011;51775;51.148;6.950;2023-04-15T09:08:49;2.90;;;0.93;;
65187;SDS011;51775;51.148;6.950;2023-04-15T09:11:15;1.80;;;0.80;;
65187;SDS011;51775;51.148;6.950;2023-04-15T09:13:40;1.17;;;0.90;;
65187;SDS011;51775;51.148;6.950;2023-04-15T09:16:06;3.25;;;0.95;;
65187;SDS011;51775;51.148;6.950;2023-04-15T09:18:32;1.05;;;0.80;;
65187;SDS011;51775;51.148;6.950;2023-04-15T09:21:11;1.50;;;0.80;;
65187;SDS011;51775;51.148;6.950;2023-04-15T09:23:38;2.40;;;0.70;;
65187;SDS011;51775;51.148;6.950;2023-04-15T09:26:05;1.90;;;0.90;;
65187;SDS011;51775;51.148;6.950;2023-04-15T09:28:32;1.10;;;0.80;;
65187;SDS011;51775;51.148;6.950;2023-04-15T09:31:04;1.30;;;0.77;;
65187;SDS011;51775;51.148;6.950;2023-04-15T09:33:30;1.58;;;0.80;;
65187;SDS011;51775;51.148;6.950;2023-04-15T09:36:02;1.67;;;0.90;;
65187;SDS011;51775;51.148;6.950;2023-04-15T09:38:30;1.00;;;0.70;;
65187;SDS011;51775;51.148;6.950;2023-04-15T09:40:58;1.30;;;0.82;;
65187;SDS011;51775;51.148;6.950;2023-04-15T09:43:36;1.10;;;0.70;;
65187;SDS011;51775;51.148;6.950;2023-04-15T09:46:03;1.05;;;0.80;;
65187;SDS011;51775;51.148;6.950;2023-04-15T09:51:04;1.38;;;0.82;;
65187;SDS011;51775;51.148;6.950;2023-04-15T09:53:32;1.08;;;0.77;;
65187;SDS011;51775;51.148;6.950;2023-04-15T09:55:59;1.02;;;0.70;;
65187;SDS011;51775;51.148;6.950;2023-04-15T09:58:25;0.95;;;0.70;;
65187;SDS011;51775;51.148;6.950;2023-04-15T10:00:55;0.77;;;0.60;;
65187;SDS011;51775;51.148;6.950;2023-04-15T10:03:25;0.70;;;0.50;;
65187;SDS011;51775;51.148;6.950;2023-04-15T10:05:56;0.70;;;0.60;;
65187;SDS011;51775;51.148;6.950;2023-04-15T10:08:24;1.75;;;0.80;;
65187;SDS011;51775;51.148;6.950;2023-04-15T10:10:53;1.02;;;0.70;;
65187;SDS011;51775;51.148;6.950;2023-04-15T10:13:20;1.20;;;0.70;;
65187;SDS011;51775;51.148;6.950;2023-04-15T10:15:51;1.08;;;0.80;;
65187;SDS011;51775;51.148;6.950;2023-04-15T10:18:25;1.00;;;0.70;;
65187;SDS011;51775;51.148;6.950;2023-04-15T10:20:52;0.93;;;0.70;;
65187;SDS011;51775;51.148;6.950;2023-04-15T10:23:18;2.35;;;0.77;;
65187;SDS011;51775;51.148;6.950;2023-04-15T10:25:44;1.52;;;0.90;;
65187;SDS011;51775;51.148;6.950;2023-04-15T10:28:10;0.82;;;0.73;;
65187;SDS011;51775;51.148;6.950;2023-04-15T10:30:36;0.70;;;0.60;;
65187;SDS011;51775;51.148;6.950;2023-04-15T10:33:02;0.93;;;0.60;;
65187;SDS011;51775;51.148;6.950;2023-04-15T10:35:29;0.85;;;0.70;;
65187;SDS011;51775;51.148;6.950;2023-04-15T10:37:56;1.00;;;0.80;;
65187;SDS011;51775;51.148;6.950;2023-04-15T10:40:28;1.08;;;0.75;;
65187;SDS011;51775;51.148;6.950;2023-04-15T10:42:54;1.20;;;0.70;;
65187;SDS011;51775;51.148;6.950;2023-04-15T10:45:20;0.90;;;0.70;;
65187;SDS011;51775;51.148;6.950;2023-04-15T10:47:50;1.10;;;0.63;;
65187;SDS011;51775;51.148;6.950;2023-04-15T10:50:16;0.90;;;0.70;;
65187;SDS011;51775;51.148;6.950;2023-04-15T10:52:43;1.20;;;0.70;;
65187;SDS011;51775;51.148;6.950;2023-04-15T10:57:34;1.10;;;0.70;;
65187;SDS011;51775;51.148;6.950;2023-04-15T11:00:12;1.13;;;0.80;;
65187;SDS011;51775;51.148;6.950;2023-04-15T11:05:15;0.80;;;0.60;;
65187;SDS011;51775;51.148;6.950;2023-04-15T11:12:45;1.27;;;0.80;;
65187;SDS011;51775;51.148;6.950;2023-04-15T11:15:28;0.70;;;0.60;;
65187;SDS011;51775;51.148;6.950;2023-04-15T11:20:37;1.08;;;0.73;;
65187;SDS011;51775;51.148;6.950;2023-04-15T11:23:03;2.22;;;0.80;;
65187;SDS011;51775;51.148;6.950;2023-04-15T11:25:30;0.60;;;0.60;;
65187;SDS011;51775;51.148;6.950;2023-04-15T11:27:57;1.13;;;0.70;;
65187;SDS011;51775;51.148;6.950;2023-04-15T11:30:24;2.75;;;1.00;;
65187;SDS011;51775;51.148;6.950;2023-04-15T11:32:52;1.00;;;0.80;;
65187;SDS011;51775;51.148;6.950;2023-04-15T11:35:22;1.10;;;0.80;;
65187;SDS011;51775;51.148;6.950;2023-04-15T11:37:48;1.02;;;0.80;;
65187;SDS011;51775;51.148;6.950;2023-04-15T11:40:14;3.50;;;0.88;;
65187;SDS011;51775;51.148;6.950;2023-04-15T11:42:39;1.52;;;0.90;;
65187;SDS011;51775;51.148;6.950;2023-04-15T11:45:11;1.20;;;0.90;;
65187;SDS011;51775;51.148;6.950;2023-04-15T11:47:38;1.77;;;1.20;;
65187;SDS011;51775;51.148;6.950;2023-04-15T11:52:55;1.60;;;1.20;;
65187;SDS011;51775;51.148;6.950;2023-04-15T11:55:25;1.30;;;1.00;;
65187;SDS011;51775;51.148;6.950;2023-04-15T11:58:07;1.45;;;1.00;;
65187;SDS011;51775;51.148;6.950;2023-04-15T12:14:18;1.83;;;1.33;;
65187;SDS011;51775;51.148;6.950;2023-04-15T12:16:52;2.03;;;1.13;;
65187;SDS011;51775;51.148;6.950;2023-04-15T12:19:25;1.65;;;1.13;;
65187;SDS011;51775;51.148;6.950;2023-04-15T12:21:52;2.40;;;1.30;;
65187;SDS011;51775;51.148;6.950;2023-04-15T12:24:37;1.80;;;1.20;;
65187;SDS011;51775;51.148;6.950;2023-04-15T12:27:07;1.70;;;1.15;;
65187;SDS011;51775;51.148;6.950;2023-04-15T12:29:37;2.13;;;1.30;;
65187;SDS011;51775;51.148;6.950;2023-04-15T12:32:16;1.40;;;1.08;;
65187;SDS011;51775;51.148;6.950;2023-04-15T12:34:49;2.83;;;1.10;;
65187;SDS011;51775;51.148;6.950;2023-04-15T12:37:15;1.60;;;1.15;;
65187;SDS011;51775;51.148;6.950;2023-04-15T12:39:42;1.33;;;1.00;;
65187;SDS011;51775;51.148;6.950;2023-04-15T12:42:08;1.70;;;1.15;;
65187;SDS011;51775;51.148;6.950;2023-04-15T12:44:35;1.80;;;1.20;;
65187;SDS011;51775;51.148;6.950;2023-04-15T12:47:01;1.80;;;1.17;;
65187;SDS011;51775;51.148;6.950;2023-04-15T12:49:26;1.50;;;1.15;;
65187;SDS011;51775;51.148;6.950;2023-04-15T12:51:52;1.55;;;1.00;;
65187;SDS011;51775;51.148;6.950;2023-04-15T12:54:19;3.10;;;1.10;;
65187;SDS011;51775;51.148;6.950;2023-04-15T12:56:45;2.45;;;1.10;;
65187;SDS011;51775;51.148;6.950;2023-04-15T12:59:11;1.80;;;1.20;;
65187;SDS011;51775;51.148;6.950;2023-04-15T13:01:37;1.50;;;1.10;;
65187;SDS011;51775;51.148;6.950;2023-04-15T13:04:03;1.52;;;1.10;;
65187;SDS011;51775;51.148;6.950;2023-04-15T13:06:29;1.63;;;1.20;;
65187;SDS011;51775;51.148;6.950;2023-04-15T13:08:54;1.83;;;1.23;;
65187;SDS011;51775;51.148;6.950;2023-04-15T13:11:20;2.45;;;1.13;;
65187;SDS011;51775;51.148;6.950;2023-04-15T13:13:46;1.63;;;1.10;;
65187;SDS011;51775;51.148;6.950;2023-04-15T13:16:12;1.40;;;1.00;;
65187;SDS011;51775;51.148;6.950;2023-04-15T13:18:48;1.70;;;1.10;;
65187;SDS011;51775;51.148;6.950;2023-04-15T13:21:13;1.30;;;0.98;;
65187;SDS011;51775;51.148;6.950;2023-04-15T13:23:43;1.10;;;0.95;;
65187;SDS011;51775;51.148;6.950;2023-04-15T13:26:08;1.50;;;1.00;;
65187;SDS011;51775;51.148;6.950;2023-04-15T13:28:34;1.40;;;0.90;;
65187;SDS011;51775;51.148;6.950;2023-04-15T13:30:59;1.35;;;0.80;;
65187;SDS011;51775;51.148;6.950;2023-04-15T13:33:25;2.17;;;1.00;;
65187;SDS011;51775;51.148;6.950;2023-04-15T13:35:50;1.58;;;1.05;;
65187;SDS011;51775;51.148;6.950;2023-04-15T13:38:15;4.93;;;0.90;;
65187;SDS011;51775;51.148;6.950;2023-04-15T13:40:41;2.17;;;1.10;;
65187;SDS011;51775;51.148;6.950;2023-04-15T13:43:06;1.35;;;0.90;;
65187;SDS011;51775;51.148;6.950;2023-04-15T13:45:31;1.17;;;0.90;;
65187;SDS011;51775;51.148;6.950;2023-04-15T13:47:56;1.45;;;0.90;;
65187;SDS011;51775;51.148;6.950;2023-04-15T13:50:22;0.90;;;0.73;;
65187;SDS011;51775;51.148;6.950;2023-04-15T13:52:47;2.55;;;0.90;;
65187;SDS011;51775;51.148;6.950;2023-04-15T13:55:13;1.50;;;0.82;;
65187;SDS011;51775;51.148;6.950;2023-04-15T13:57:38;1.67;;;0.90;;
65187;SDS011;51775;51.148;6.950;2023-04-15T14:00:04;1.20;;;0.90;;
65187;SDS011;51775;51.148;6.950;2023-04-15T14:02:29;1.05;;;0.80;;
65187;SDS011;51775;51.148;6.950;2023-04-15T14:04:55;1.23;;;0.80;;
65187;SDS011;51775;51.148;6.950;2023-04-15T14:07:20;1.25;;;0.90;;
65187;SDS011;51775;51.148;6.950;2023-04-15T14:09:45;1.33;;;0.90;;
65187;SDS011;51775;51.148;6.950;2023-04-15T14:12:10;1.20;;;0.90;;
65187;SDS011;51775;51.148;6.950;2023-04-15T14:14:36;1.45;;;0.90;;
65187;SDS011;51775;51.148;6.950;2023-04-15T14:17:01;0.95;;;0.80;;
65187;SDS011;51775;51.148;6.950;2023-04-15T14:19:28;1.10;;;0.80;;
65187;SDS011;51775;51.148;6.950;2023-04-15T14:21:54;1.00;;;0.80;;
65187;SDS011;51775;51.148;6.950;2023-04-15T14:24:19;1.40;;;0.90;;
65187;SDS011;51775;51.148;6.950;2023-04-15T14:26:45;1.70;;;0.80;;
65187;SDS011;51775;51.148;6.950;2023-04-15T14:29:10;1.65;;;0.70;;
65187;SDS011;51775;51.148;6.950;2023-04-15T14:31:38;1.27;;;0.90;;
65187;SDS011;51775;51.148;6.950;2023-04-15T14:34:05;1.50;;;0.90;;
65187;SDS011;51775;51.148;6.950;2023-04-15T14:36:31;1.10;;;0.80;;
65187;SDS011;51775;51.148;6.950;2023-04-15T14:38:56;0.98;;;0.73;;
65187;SDS011;51775;51.148;6.950;2023-04-15T14:41:22;1.25;;;0.85;;
65187;SDS011;51775;51.148;6.950;2023-04-15T14:43:47;1.70;;;0.88;;
65187;SDS011;51775;51.148;6.950;2023-04-15T14:46:13;1.10;;;0.70;;
65187;SDS011;51775;51.148;6.950;2023-04-15T14:48:38;1.23;;;0.80;;
65187;SDS011;51775;51.148;6.950;2023-04-15T14:51:06;4.05;;;0.80;;
65187;SDS011;51775;51.148;6.950;2023-04-15T14:53:31;1.08;;;0.80;;
65187;SDS011;51775;51.148;6.950;2023-04-15T14:55:57;0.60;;;0.60;;
65187;SDS011;51775;51.148;6.950;2023-04-15T14:58:22;0.90;;;0.70;;
65187;SDS011;51775;51.148;6.950;2023-04-15T15:00:47;1.00;;;0.80;;
65187;SDS011;51775;51.148;6.950;2023-04-15T15:03:12;0.93;;;0.70;;
65187;SDS011;51775;51.148;6.950;2023-04-15T15:05:38;0.80;;;0.70;;
65187;SDS011;51775;51.148;6.950;2023-04-15T15:08:07;0.80;;;0.70;;
65187;SDS011;51775;51.148;6.950;2023-04-15T15:13:05;0.90;;;0.70;;
65187;SDS011;51775;51.148;6.950;2023-04-15T15:15:32;1.52;;;0.80;;
65187;SDS011;51775;51.148;6.950;2023-04-15T15:17:58;0.70;;;0.70;;
65187;SDS011;51775;51.148;6.950;2023-04-15T15:20:24;0.95;;;0.70;;
65187;SDS011;51775;51.148;6.950;2023-04-15T15:22:49;1.40;;;0.90;;